Time;durP1;ratioP1;P1;durP2;ratioP2;P2;SDS_P1;SDS_P2;PMS_P1;PMS_P2;Temp;Humidity;BMP_temperature;BMP_pressure;BME280_temperature;BME280_humidity;BME280_pressure;Samples;Min_cycle;Max_cycle;Signal;HPM_P1;HPM_P2
2024/02/15 00:00:52;;;;;;;30.40;20.30;;;;;;;10.67;100.00;100552.41;10433665;28;20053;-84
2024/02/15 00:05:55;;;;;;;21.88;13.38;;;;;;;10.28;100.00;100559.03;10417866;28;20127;-82
2024/02/15 00:10:59;;;;;;;28.00;19.10;;;;;;;10.45;100.00;100547.88;10415967;28;20099;-82
2024/02/15 00:16:03;;;;;;;29.08;18.80;;;;;;;10.31;100.00;100543.56;10388182;28;20053;-81
2024/02/15 00:21:06;;;;;;;31.30;20.23;;;;;;;10.24;100.00;100555.75;10397982;28;20046;-82
2024/02/15 00:26:11;;;;;;;32.10;20.88;;;;;;;10.33;100.00;100544.28;10385785;28;20697;-80
2024/02/15 00:31:17;;;;;;;29.77;20.70;;;;;;;10.70;100.00;100546.78;10436576;28;21092;-83
2024/02/15 00:36:20;;;;;;;35.03;21.33;;;;;;;10.48;100.00;100538.72;10438520;28;20048;-80
2024/02/15 00:41:23;;;;;;;30.95;19.10;;;;;;;10.39;100.00;100545.63;10426009;28;20106;-80
2024/02/15 00:46:29;;;;;;;33.35;20.50;;;;;;;10.56;100.00;100547.88;10446088;28;20887;-81
2024/02/15 00:51:32;;;;;;;35.70;22.00;;;;;;;10.63;100.00;100544.69;10415207;28;20049;-80
2024/02/15 00:56:35;;;;;;;33.17;19.33;;;;;;;10.12;100.00;100545.94;10437640;28;21442;-80
2024/02/15 01:01:40;;;;;;;32.38;22.08;;;;;;;10.43;100.00;100551.66;10429005;28;20553;-80
2024/02/15 01:06:44;;;;;;;33.25;20.30;;;;;;;10.29;100.00;100544.66;10437580;28;20049;-80
2024/02/15 01:11:47;;;;;;;34.50;22.08;;;;;;;10.36;100.00;100554.78;10433404;28;20047;-80
2024/02/15 01:16:52;;;;;;;40.10;23.48;;;;;;;10.44;100.00;100553.34;10415588;28;20103;-79
2024/02/15 01:21:55;;;;;;;35.45;23.83;;;;;;;10.64;100.00;100562.50;10425560;28;20045;-81
2024/02/15 01:26:58;;;;;;;34.47;20.27;;;;;;;10.27;100.00;100558.19;10436098;28;20518;-83
2024/02/15 01:32:03;;;;;;;34.30;20.58;;;;;;;10.11;100.00;100546.91;10429135;28;20597;-80
2024/02/15 01:37:06;;;;;;;41.55;23.85;;;;;;;10.68;100.00;100550.56;10427822;28;20132;-82
2024/02/15 01:42:09;;;;;;;33.80;20.42;;;;;;;10.55;100.00;100556.03;10442246;28;20056;-81
2024/02/15 01:47:14;;;;;;;39.60;23.25;;;;;;;10.60;100.00;100557.38;10413256;28;20500;-80
2024/02/15 01:52:18;;;;;;;46.03;25.52;;;;;;;10.51;100.00;100559.97;10413043;28;20037;-81
2024/02/15 01:57:22;;;;;;;42.08;22.10;;;;;;;10.57;100.00;100560.31;10421801;28;20484;-81
2024/02/15 02:02:33;;;;;;;40.67;24.90;;;;;;;10.42;100.00;100556.13;10426968;28;20515;-82
2024/02/15 02:07:36;;;;;;;39.97;23.25;;;;;;;10.56;100.00;100549.72;10423574;28;20578;-80
2024/02/15 02:12:41;;;;;;;39.78;23.45;;;;;;;10.47;100.00;100566.53;10425842;28;20048;-81
2024/02/15 02:17:49;;;;;;;34.40;19.73;;;;;;;10.44;100.00;100554.19;10447924;28;20052;-81
2024/02/15 02:22:55;;;;;;;36.85;22.55;;;;;;;10.44;100.00;100551.50;10425078;28;20061;-81
2024/02/15 02:28:00;;;;;;;34.22;21.02;;;;;;;10.37;100.00;100544.91;10437171;28;20894;-80
2024/02/15 02:33:07;;;;;;;38.58;21.38;;;;;;;10.66;100.00;100549.81;10446758;28;20041;-80
2024/02/15 02:38:10;;;;;;;36.90;21.45;;;;;;;10.39;100.00;100543.81;10429245;28;20036;-79
2024/02/15 02:43:14;;;;;;;33.10;20.35;;;;;;;10.44;100.00;100547.97;10445076;28;20052;-81
2024/02/15 02:48:18;;;;;;;24.38;13.85;;;;;;;10.42;100.00;100548.06;10408970;28;20361;-81
2024/02/15 02:53:21;;;;;;;36.35;20.08;;;;;;;10.54;100.00;100548.97;10416459;28;20045;-81
2024/02/15 02:58:26;;;;;;;33.03;18.17;;;;;;;10.64;100.00;100546.41;10408306;28;20068;-80
2024/02/15 03:03:29;;;;;;;30.00;18.45;;;;;;;10.55;100.00;100539.94;10424936;28;20192;-81
2024/02/15 03:08:32;;;;;;;31.40;18.90;;;;;;;10.49;100.00;100543.94;10393356;28;20053;-82
2024/02/15 03:13:36;;;;;;;33.35;20.55;;;;;;;10.44;100.00;100545.28;10402073;28;20254;-81
2024/02/15 03:18:41;;;;;;;34.60;21.30;;;;;;;10.57;100.00;100554.09;10389913;28;21526;-82
2024/02/15 03:23:44;;;;;;;34.17;19.75;;;;;;;10.46;100.00;100546.88;10401442;28;20132;-80
2024/02/15 03:28:50;;;;;;;47.35;23.00;;;;;;;10.59;100.00;100549.47;10373592;28;20513;-80
2024/02/15 03:33:54;;;;;;;38.47;21.55;;;;;;;10.76;100.00;100548.13;10419071;28;20057;-82
2024/02/15 03:38:58;;;;;;;41.00;21.30;;;;;;;10.33;100.00;100543.44;10443223;28;20080;-81
2024/02/15 03:44:03;;;;;;;47.65;25.05;;;;;;;10.67;100.00;100543.47;10435561;28;20049;-80
2024/02/15 03:49:07;;;;;;;50.58;27.92;;;;;;;10.82;100.00;100545.81;10416638;28;20052;-82
2024/02/15 03:54:11;;;;;;;54.45;26.67;;;;;;;10.77;100.00;100545.31;10389334;28;20044;-82
2024/02/15 03:59:15;;;;;;;61.75;32.05;;;;;;;10.81;100.00;100554.84;10392841;28;20057;-81
2024/02/15 04:04:20;;;;;;;60.40;30.27;;;;;;;10.56;100.00;100555.09;10437861;28;20439;-80
2024/02/15 04:09:25;;;;;;;61.53;31.00;;;;;;;10.52;100.00;100549.06;10443323;28;20052;-80
2024/02/15 04:14:29;;;;;;;70.88;34.00;;;;;;;10.72;100.00;100549.34;10419284;28;20071;-80
2024/02/15 04:19:32;;;;;;;63.75;30.58;;;;;;;10.66;100.00;100549.81;10445801;28;20056;-82
2024/02/15 04:24:39;;;;;;;67.97;32.97;;;;;;;10.76;100.00;100558.88;10430655;28;20052;-81
2024/02/15 04:29:46;;;;;;;72.95;35.15;;;;;;;10.84;100.00;100545.69;10438287;28;20048;-81
2024/02/15 04:34:49;;;;;;;66.50;32.10;;;;;;;10.85;100.00;100558.13;10432230;28;20102;-80
2024/02/15 04:39:52;;;;;;;64.30;32.08;;;;;;;10.76;100.00;100548.13;10428115;28;20049;-81
2024/02/15 04:44:56;;;;;;;56.60;28.70;;;;;;;10.72;100.00;100547.50;10441953;28;20782;-81
2024/02/15 04:49:59;;;;;;;62.40;32.42;;;;;;;10.85;100.00;100552.75;10434878;28;20102;-81
2024/02/15 04:55:04;;;;;;;64.05;29.02;;;;;;;10.73;100.00;100553.75;10423773;28;20823;-81
2024/02/15 05:00:12;;;;;;;64.18;31.42;;;;;;;10.86;100.00;100549.13;10431041;28;20044;-81
2024/02/15 05:05:16;;;;;;;63.40;30.17;;;;;;;10.92;100.00;100558.53;10427465;28;20436;-80
2024/02/15 05:10:19;;;;;;;61.58;29.88;;;;;;;10.98;100.00;100552.66;10427071;28;20049;-81
2024/02/15 05:15:24;;;;;;;53.97;28.52;;;;;;;10.85;100.00;100558.13;10449788;28;20049;-80
2024/02/15 05:20:28;;;;;;;49.45;27.27;;;;;;;10.94;100.00;100540.41;10435803;28;21579;-80
2024/02/15 05:25:32;;;;;;;48.80;26.30;;;;;;;10.88;100.00;100547.13;10445587;28;20393;-81
2024/02/15 05:30:39;;;;;;;42.92;24.42;;;;;;;10.83;100.00;100549.34;10390544;28;20053;-80
2024/02/15 05:35:46;;;;;;;37.42;20.40;;;;;;;10.68;100.00;100551.41;10392620;28;20045;-81
2024/02/15 05:40:50;;;;;;;39.70;21.60;;;;;;;10.88;100.00;100535.53;10390522;28;20579;-81
2024/02/15 05:45:55;;;;;;;33.95;19.10;;;;;;;10.69;100.00;100545.06;10398359;28;20103;-80
2024/02/15 05:51:00;;;;;;;33.75;19.67;;;;;;;10.78;100.00;100536.28;10433684;28;20044;-81
2024/02/15 05:56:05;;;;;;;32.10;17.92;;;;;;;10.88;100.00;100532.84;10439944;28;20044;-81
2024/02/15 06:01:11;;;;;;;30.60;17.35;;;;;;;10.87;100.00;100539.22;10438941;28;20044;-82
2024/02/15 06:06:14;;;;;;;32.75;17.85;;;;;;;10.84;100.00;100538.47;10433908;28;20051;-80
2024/02/15 06:11:21;;;;;;;30.42;16.73;;;;;;;10.88;100.00;100535.53;10432855;28;20067;-81
2024/02/15 06:16:26;;;;;;;25.98;16.55;;;;;;;10.83;100.00;100535.91;10409692;28;20088;-80
2024/02/15 06:21:29;;;;;;;25.27;15.45;;;;;;;10.83;100.00;100534.09;10425568;28;20438;-81
2024/02/15 06:26:33;;;;;;;26.30;14.15;;;;;;;10.87;100.00;100534.69;10445779;28;20045;-81
2024/02/15 06:42:20;;;;;;;21.50;13.50;;;;;;;10.82;100.00;100535.06;10435813;28;20624;-81
2024/02/15 06:47:25;;;;;;;19.98;11.85;;;;;;;10.90;100.00;100528.22;10436433;28;20045;-81
2024/02/15 06:52:28;;;;;;;21.05;11.82;;;;;;;10.87;100.00;100518.56;10431544;28;20053;-83
2024/02/15 06:57:31;;;;;;;16.90;11.07;;;;;;;10.83;100.00;100520.66;10439929;28;20610;-81
2024/02/15 07:02:36;;;;;;;19.58;12.05;;;;;;;10.88;100.00;100508.66;10435220;28;20148;-81
2024/02/15 07:07:42;;;;;;;22.55;11.88;;;;;;;10.91;100.00;100497.66;10414771;28;20487;-80
2024/02/15 07:12:45;;;;;;;19.33;12.05;;;;;;;10.88;100.00;100488.03;10401039;28;20057;-81
2024/02/15 07:17:54;;;;;;;17.73;11.60;;;;;;;10.87;100.00;100504.28;10392964;28;20057;-81
2024/02/15 07:22:58;;;;;;;13.52;10.05;;;;;;;10.89;100.00;100513.06;10383624;28;20045;-81
2024/02/15 07:28:01;;;;;;;16.10;9.35;;;;;;;11.01;100.00;100501.34;10391065;28;20092;-82
2024/02/15 07:33:06;;;;;;;18.73;8.90;;;;;;;11.03;100.00;100520.88;10391216;28;20052;-81
2024/02/15 07:38:11;;;;;;;15.05;8.93;;;;;;;11.09;100.00;100514.16;10402464;28;20041;-81
2024/02/15 07:43:14;;;;;;;11.98;7.80;;;;;;;11.15;100.00;100522.59;10405438;28;20512;-81
2024/02/15 07:48:18;;;;;;;11.45;6.32;;;;;;;11.10;100.00;100522.06;10395583;28;20121;-82
2024/02/15 07:53:22;;;;;;;11.70;6.60;;;;;;;11.16;100.00;100529.69;10404744;28;20057;-80
2024/02/15 07:58:25;;;;;;;15.10;7.32;;;;;;;11.05;100.00;100529.66;10402421;28;20519;-83
2024/02/15 08:03:29;;;;;;;9.35;5.75;;;;;;;11.05;100.00;100524.28;10415664;28;20147;-81
2024/02/15 08:08:35;;;;;;;11.32;5.75;;;;;;;11.23;100.00;100512.06;10432360;28;20417;-81
2024/02/15 08:13:38;;;;;;;9.60;5.70;;;;;;;11.20;100.00;100514.16;10431503;28;20049;-80
2024/02/15 08:18:43;;;;;;;8.80;5.43;;;;;;;11.25;100.00;100509.28;10427982;28;20563;-81
2024/02/15 08:23:47;;;;;;;8.88;5.57;;;;;;;11.37;100.00;100500.19;10440372;28;20119;-81
2024/02/15 08:28:50;;;;;;;10.20;5.38;;;;;;;11.48;100.00;100486.69;10439235;28;20463;-81
2024/02/15 08:33:54;;;;;;;10.32;4.32;;;;;;;11.42;100.00;100487.22;10434587;28;20030;-81
2024/02/15 08:38:58;;;;;;;7.72;4.43;;;;;;;11.34;100.00;100475.38;10432794;28;20140;-81
2024/02/15 08:44:02;;;;;;;8.38;4.53;;;;;;;11.36;100.00;100478.81;10432362;28;20148;-80
2024/02/15 08:49:06;;;;;;;10.73;4.18;;;;;;;11.38;100.00;100475.00;10421434;28;20048;-81
2024/02/15 08:54:09;;;;;;;11.85;5.05;;;;;;;11.16;100.00;100483.13;10449341;28;20044;-77
2024/02/15 08:59:15;;;;;;;7.55;4.30;;;;;;;11.03;100.00;100469.81;10441097;28;20566;-80
2024/02/15 09:04:21;;;;;;;12.90;4.70;;;;;;;10.59;100.00;100476.94;10438017;28;20706;-81
2024/02/15 09:09:38;;;;;;;7.70;4.82;;;;;;;11.04;100.00;100487.63;10431578;28;20764;-78
2024/02/15 09:14:41;;;;;;;7.80;4.20;;;;;;;11.01;100.00;100474.44;10403814;28;20107;-78
2024/02/15 09:19:49;;;;;;;12.05;4.95;;;;;;;10.97;100.00;100481.91;10427668;28;20102;-79
2024/02/15 09:24:52;;;;;;;9.60;5.30;;;;;;;11.10;100.00;100479.06;10419852;28;20042;-80
2024/02/15 09:29:55;;;;;;;9.52;5.10;;;;;;;11.03;100.00;100480.56;10419641;28;20056;-80
2024/02/15 09:35:00;;;;;;;11.98;6.05;;;;;;;11.29;100.00;100478.44;10442472;28;20088;-80
2024/02/15 09:40:07;;;;;;;11.50;5.05;;;;;;;11.36;100.00;100479.66;10427616;28;20059;-80
2024/02/15 09:45:11;;;;;;;11.95;4.38;;;;;;;11.22;100.00;100485.31;10416172;28;20501;-79
2024/02/15 09:50:17;;;;;;;9.15;4.47;;;;;;;11.12;100.00;100505.84;10414417;28;20053;-79
2024/02/15 09:55:22;;;;;;;9.20;4.03;;;;;;;11.10;100.00;100497.03;10431067;28;20491;-79
2024/02/15 10:00:26;;;;;;;7.10;4.35;;;;;;;11.10;100.00;100495.19;10435289;28;20444;-80
2024/02/15 10:05:31;;;;;;;7.97;4.22;;;;;;;10.89;100.00;100511.25;10449056;28;20132;-80
2024/02/15 10:10:35;;;;;;;10.80;4.03;;;;;;;11.11;100.00;100499.63;10423254;28;20058;-79
2024/02/15 10:15:40;;;;;;;13.80;4.40;;;;;;;10.83;100.00;100503.66;10433971;28;20045;-79
2024/02/15 10:20:58;;;;;;;9.73;4.20;;;;;;;11.16;100.00;100499.25;10428675;28;20505;-80
2024/02/15 10:26:22;;;;;;;8.60;4.60;;;;;;;10.97;100.00;100498.03;10439023;28;20075;-81
2024/02/15 10:31:25;;;;;;;8.88;4.40;;;;;;;10.87;100.00;100509.66;10439792;28;20052;-79
2024/02/15 10:36:32;;;;;;;11.13;4.45;;;;;;;10.97;100.00;100507.91;10448739;28;20045;-79
2024/02/15 10:41:36;;;;;;;10.32;5.15;;;;;;;10.74;100.00;100496.34;10419136;28;20046;-79
2024/02/15 10:46:41;;;;;;;7.93;4.07;;;;;;;10.54;100.00;100485.34;10442631;28;20085;-79
2024/02/15 10:51:49;;;;;;;10.75;4.10;;;;;;;10.47;100.00;100484.13;10442838;28;20051;-78
2024/02/15 10:56:57;;;;;;;7.60;4.57;;;;;;;10.57;100.00;100485.09;10435142;28;20041;-77
2024/02/15 11:02:04;;;;;;;8.23;4.45;;;;;;;10.51;100.00;100484.75;10415555;28;20153;-78
2024/02/15 11:07:11;;;;;;;5.55;3.70;;;;;;;10.29;100.00;100474.84;10420207;28;20050;-78
2024/02/15 11:12:15;;;;;;;7.80;4.00;;;;;;;10.64;100.00;100472.06;10410807;28;20095;-78
2024/02/15 11:17:50;;;;;;;9.52;4.38;;;;;;;10.16;100.00;100480.31;10424112;28;20516;-77
2024/02/15 11:22:58;;;;;;;6.82;4.75;;;;;;;10.35;100.00;100469.84;10436522;28;20052;-77
2024/02/15 11:28:38;;;;;;;7.50;3.65;;;;;;;10.39;100.00;100457.91;10427781;28;20408;-78
2024/02/15 11:33:44;;;;;;;8.20;3.70;;;;;;;10.39;100.00;100457.91;10435025;28;20052;-78
2024/02/15 11:38:49;;;;;;;8.07;3.95;;;;;;;10.17;100.00;100410.41;10411284;28;20045;-78
2024/02/15 11:43:57;;;;;;;5.38;2.97;;;;;;;10.25;100.00;100376.72;10435030;28;20045;-79
2024/02/15 11:49:03;;;;;;;6.35;4.20;;;;;;;10.40;100.00;100370.13;10423754;28;20136;-78
2024/02/15 11:54:11;;;;;;;7.95;3.42;;;;;;;9.98;100.00;100385.97;10446757;28;20127;-78
2024/02/15 11:59:28;;;;;;;5.85;3.90;;;;;;;10.37;100.00;100394.53;10439189;28;20079;-78
2024/02/15 12:20:41;;;;;;;7.50;3.20;;;;;;;11.30;100.00;100385.16;10442047;28;20052;-77
2024/02/15 12:25:52;;;;;;;7.70;3.47;;;;;;;11.22;100.00;100385.84;10452026;28;20046;-80
2024/02/15 12:30:57;;;;;;;5.20;2.33;;;;;;;10.83;100.00;100402.44;10446546;28;20309;-79
2024/02/15 12:36:06;;;;;;;8.57;2.45;;;;;;;11.01;100.00;100396.50;10464546;28;20073;-78
2024/02/15 12:41:20;;;;;;;4.88;2.10;;;;;;;11.24;100.00;100395.50;10425433;28;20111;-76
2024/02/15 12:46:26;;;;;;;4.00;1.40;;;;;;;11.08;100.00;100384.28;10451194;28;20041;-79
2024/02/15 12:51:32;;;;;;;3.10;1.52;;;;;;;11.22;100.00;100378.63;10458545;28;20077;-80
2024/02/15 12:56:40;;;;;;;6.50;2.47;;;;;;;11.40;100.00;100378.03;10450405;28;20109;-80
2024/02/15 13:01:43;;;;;;;6.85;2.15;;;;;;;11.71;100.00;100373.56;10438226;28;20045;-79
2024/02/15 13:06:46;;;;;;;4.68;1.52;;;;;;;11.62;100.00;100372.53;10449076;28;20053;-79
2024/02/15 13:11:53;;;;;;;6.38;1.77;;;;;;;11.77;100.00;100369.53;10450387;28;20442;-80
2024/02/15 13:16:57;;;;;;;3.08;1.50;;;;;;;11.83;100.00;100382.44;10443283;28;20051;-80
2024/02/15 13:22:00;;;;;;;5.82;2.00;;;;;;;12.12;100.00;100372.69;10432987;28;20038;-80
2024/02/15 13:27:04;;;;;;;7.28;1.90;;;;;;;12.13;100.00;100363.63;10434746;28;20053;-81
2024/02/15 13:32:07;;;;;;;5.15;1.80;;;;;;;12.14;100.00;100356.38;10438624;28;20550;-79
2024/02/15 13:37:13;;;;;;;5.97;1.40;;;;;;;12.00;100.00;100343.28;10422585;28;20336;-78
2024/02/15 13:42:18;;;;;;;7.25;1.55;;;;;;;12.31;100.00;100345.03;10416507;28;20073;-81
2024/02/15 13:47:21;;;;;;;3.13;1.20;;;;;;;12.01;100.00;100343.13;10423543;28;20738;-80
2024/02/15 13:52:23;;;;;;;5.18;1.88;;;;;;;12.06;100.00;100337.34;10429934;28;20043;-80
2024/02/15 13:57:28;;;;;;;6.18;1.48;;;;;;;12.30;100.00;100320.91;10438482;28;20160;-80
2024/02/15 14:02:31;;;;;;;2.63;1.23;;;;;;;12.34;100.00;100319.63;10422918;28;20038;-80
2024/02/15 14:07:34;;;;;;;3.83;1.70;;;;;;;12.37;100.00;100317.53;10444117;28;20045;-79
2024/02/15 14:12:39;;;;;;;2.58;1.65;;;;;;;12.70;100.00;100302.00;10444121;28;20033;-80
2024/02/15 14:17:42;;;;;;;3.13;1.27;;;;;;;12.80;100.00;100297.44;10439247;28;20106;-81
2024/02/15 14:22:48;;;;;;;6.25;1.73;;;;;;;12.92;100.00;100300.88;10453779;28;20084;-82
2024/02/15 14:27:56;;;;;;;4.45;1.35;;;;;;;13.06;100.00;100299.59;10462364;28;20055;-81
2024/02/15 14:33:03;;;;;;;5.55;1.50;;;;;;;13.16;100.00;100294.19;10455337;28;20048;-80
2024/02/15 14:38:10;;;;;;;5.03;1.60;;;;;;;13.17;100.00;100296.75;10456655;28;20045;-80
2024/02/15 14:43:15;;;;;;;7.65;1.83;;;;;;;13.25;100.00;100293.34;10450478;28;20064;-80
2024/02/15 14:48:23;;;;;;;4.75;2.35;;;;;;;13.10;100.00;100287.50;10450609;28;20091;-82
2024/02/15 14:53:28;;;;;;;4.68;1.38;;;;;;;13.19;100.00;100296.59;10452247;28;20037;-81
2024/02/15 14:58:32;;;;;;;5.40;1.42;;;;;;;13.05;100.00;100300.56;10453303;28;20100;-81
2024/02/15 15:03:37;;;;;;;3.47;1.90;;;;;;;13.23;100.00;100290.78;10468201;28;20045;-79
2024/02/15 15:14:04;;;;;;;4.28;1.50;;;;;;;13.22;100.00;100289.09;10463888;28;20059;-81
2024/02/15 15:19:07;;;;;;;4.43;1.27;;;;;;;13.15;100.00;100282.56;10468625;28;20060;-79
2024/02/15 15:24:10;;;;;;;5.90;1.70;;;;;;;13.24;100.00;100284.38;10462608;28;20090;-80
2024/02/15 15:29:16;;;;;;;4.40;1.30;;;;;;;13.25;100.00;100283.41;10457933;28;20535;-79
2024/02/15 15:34:19;;;;;;;4.18;1.42;;;;;;;13.12;100.00;100292.78;10462382;28;20063;-81
2024/02/15 15:39:24;;;;;;;5.78;1.60;;;;;;;13.15;100.00;100284.41;10468674;28;20050;-81
2024/02/15 15:44:30;;;;;;;5.90;1.83;;;;;;;13.12;99.89;100290.09;10465562;28;20033;-81
2024/02/15 15:49:34;;;;;;;5.38;1.55;;;;;;;13.15;98.77;100279.84;10455520;28;20132;-81
2024/02/15 15:54:40;;;;;;;1.75;1.40;;;;;;;13.12;100.00;100268.50;10471412;28;20064;-80
2024/02/15 15:59:45;;;;;;;3.10;1.25;;;;;;;13.07;100.00;100265.38;10469958;28;20597;-79
2024/02/15 16:04:48;;;;;;;3.90;1.42;;;;;;;13.04;100.00;100275.47;10463808;28;20037;-79
2024/02/15 16:09:57;;;;;;;4.72;1.33;;;;;;;12.95;100.00;100268.25;10449299;28;20040;-83
2024/02/15 16:15:05;;;;;;;4.40;1.52;;;;;;;12.90;100.00;100269.66;10449891;28;20053;-81
2024/02/15 16:20:09;;;;;;;6.72;1.45;;;;;;;12.79;100.00;100262.56;10444472;28;20047;-81
2024/02/15 16:25:13;;;;;;;6.68;1.50;;;;;;;12.67;100.00;100252.91;10441006;28;20091;-81
2024/02/15 16:30:18;;;;;;;7.28;1.90;;;;;;;12.70;100.00;100247.22;10446941;28;20527;-81
2024/02/15 16:35:22;;;;;;;7.78;2.00;;;;;;;12.58;100.00;100244.66;10444585;28;20068;-80
2024/02/15 16:40:27;;;;;;;5.80;2.33;;;;;;;12.45;100.00;100241.41;10453751;28;20056;-81
2024/02/15 16:45:33;;;;;;;5.40;2.03;;;;;;;12.25;100.00;100248.56;10443765;28;20041;-82
2024/02/15 16:50:40;;;;;;;8.52;3.22;;;;;;;12.06;100.00;100238.59;10437405;28;20045;-82
2024/02/15 16:55:44;;;;;;;5.18;2.75;;;;;;;11.97;100.00;100233.19;10446098;28;20052;-81
2024/02/15 17:00:49;;;;;;;6.22;3.10;;;;;;;11.92;100.00;100234.44;10434117;28;20050;-81
2024/02/15 17:05:52;;;;;;;8.93;3.67;;;;;;;11.94;100.00;100242.41;10450101;28;20033;-80
2024/02/15 17:10:56;;;;;;;10.07;5.05;;;;;;;12.05;100.00;100247.66;10476466;28;20104;-77
2024/02/15 17:16:00;;;;;;;10.63;4.78;;;;;;;12.07;100.00;100234.09;10455391;28;20118;-82
2024/02/15 17:21:05;;;;;;;5.53;3.72;;;;;;;12.08;100.00;100252.78;10439428;28;20045;-81
2024/02/15 17:26:08;;;;;;;10.52;4.22;;;;;;;12.10;100.00;100255.34;10441344;28;20041;-81
2024/02/15 17:31:15;;;;;;;10.15;6.03;;;;;;;11.98;100.00;100246.50;10434021;28;20052;-83
2024/02/15 17:36:18;;;;;;;10.38;6.80;;;;;;;11.85;100.00;100254.84;10447483;28;20051;-81
2024/02/15 17:41:22;;;;;;;7.75;6.03;;;;;;;11.72;100.00;100252.38;10443790;28;20041;-81
2024/02/15 17:46:27;;;;;;;9.00;6.13;;;;;;;11.59;100.00;100256.28;10440241;28;20088;-81
2024/02/15 17:51:34;;;;;;;9.05;6.55;;;;;;;11.64;100.00;100254.88;10444143;28;20112;-78
2024/02/15 17:56:37;;;;;;;16.58;7.10;;;;;;;11.67;100.00;100256.44;10459993;28;20045;-80
2024/02/15 18:01:41;;;;;;;13.25;6.95;;;;;;;11.71;100.00;100265.94;10443452;28;20511;-81
2024/02/15 18:06:44;;;;;;;9.10;6.35;;;;;;;11.71;100.00;100261.44;10447872;28;20041;-78
2024/02/15 18:11:47;;;;;;;10.52;6.63;;;;;;;11.68;100.00;100266.22;10444420;28;20063;-81
2024/02/15 18:16:52;;;;;;;12.23;6.60;;;;;;;11.58;100.00;100268.88;10436451;28;20045;-79
2024/02/15 18:21:56;;;;;;;9.48;6.65;;;;;;;11.59;100.00;100262.50;10437291;28;20041;-80
2024/02/15 18:26:59;;;;;;;11.18;7.20;;;;;;;11.59;100.00;100262.50;10435328;28;20087;-81
2024/02/15 18:32:03;;;;;;;12.60;7.63;;;;;;;11.56;100.00;100262.75;10439624;28;20060;-81
2024/02/15 18:37:07;;;;;;;10.68;7.13;;;;;;;11.48;100.00;100241.06;10452964;28;20048;-81
2024/02/15 18:42:10;;;;;;;9.23;6.75;;;;;;;11.42;100.00;100220.94;10447472;28;20040;-81
2024/02/15 18:47:15;;;;;;;9.40;6.90;;;;;;;11.54;100.00;100224.38;10453461;28;20029;-81
2024/02/15 18:52:18;;;;;;;8.90;6.28;;;;;;;11.62;100.00;100218.34;10449012;28;20037;-82
2024/02/15 18:57:21;;;;;;;7.60;5.50;;;;;;;11.68;100.00;100204.34;10440878;28;20052;-80
2024/02/15 19:02:28;;;;;;;9.23;5.72;;;;;;;11.60;100.00;100193.41;10453478;28;20053;-80
2024/02/15 19:07:31;;;;;;;11.85;6.45;;;;;;;11.62;100.00;100194.13;10449842;28;20250;-81
2024/02/15 19:12:34;;;;;;;8.52;5.80;;;;;;;11.60;100.00;100196.97;10450373;28;20053;-81
2024/02/15 19:17:39;;;;;;;9.80;5.10;;;;;;;11.61;100.00;100187.91;10443111;28;20109;-81
2024/02/15 19:22:42;;;;;;;12.05;6.05;;;;;;;11.57;100.00;100186.44;10439978;28;20053;-83
2024/02/15 19:27:46;;;;;;;16.65;6.57;;;;;;;11.52;100.00;100171.69;10457565;28;20049;-78
2024/02/15 19:32:50;;;;;;;9.05;6.38;;;;;;;11.61;100.00;100179.81;10453904;28;20045;-82
2024/02/15 19:37:53;;;;;;;9.38;6.35;;;;;;;11.59;100.00;100183.63;10471887;28;20120;-82
2024/02/15 19:42:58;;;;;;;10.13;5.80;;;;;;;11.54;100.00;100183.19;10445319;28;20076;-83
2024/02/15 19:48:05;;;;;;;10.50;5.85;;;;;;;11.51;100.00;100184.31;10444039;28;20072;-83
2024/02/15 19:53:08;;;;;;;9.10;5.90;;;;;;;11.45;100.00;100180.31;10451426;28;20091;-82
2024/02/15 19:58:11;;;;;;;10.10;4.85;;;;;;;11.58;100.00;100173.88;10452391;28;20046;-83
2024/02/15 20:03:15;;;;;;;8.00;4.60;;;;;;;11.63;100.00;100166.25;10452988;28;20041;-80
2024/02/15 20:08:19;;;;;;;8.00;3.72;;;;;;;11.57;100.00;100164.94;10443804;28;20040;-81
2024/02/15 20:13:22;;;;;;;5.93;3.50;;;;;;;11.63;100.00;100171.63;10447757;28;20061;-82
2024/02/15 20:18:26;;;;;;;8.50;4.57;;;;;;;11.59;100.00;100154.88;10450223;28;20056;-79
2024/02/15 20:23:29;;;;;;;11.25;5.00;;;;;;;11.43;100.00;100152.69;10444733;28;20120;-82
2024/02/15 20:28:32;;;;;;;7.45;4.72;;;;;;;11.36;100.00;100162.31;10454895;28;20056;-82
2024/02/15 20:33:38;;;;;;;6.60;4.63;;;;;;;11.32;100.00;100160.03;10444113;28;20400;-82
2024/02/15 20:38:41;;;;;;;10.15;6.63;;;;;;;11.23;100.00;100172.44;10443538;28;20473;-78
2024/02/15 20:43:45;;;;;;;9.70;7.10;;;;;;;11.21;100.00;100186.00;10446353;28;20114;-78
2024/02/15 20:48:50;;;;;;;8.50;5.07;;;;;;;11.17;100.00;100178.34;10439667;28;20045;-80
2024/02/15 20:53:54;;;;;;;8.23;4.38;;;;;;;11.07;100.00;100172.88;10454913;28;20041;-80
2024/02/15 20:58:57;;;;;;;6.55;4.10;;;;;;;11.01;100.00;100174.25;10447931;28;20076;-77
2024/02/15 21:04:04;;;;;;;9.05;4.70;;;;;;;10.98;100.00;100165.63;10451496;28;20038;-82
2024/02/15 21:09:12;;;;;;;8.95;4.13;;;;;;;10.99;100.00;100160.09;10445176;28;20063;-80
2024/02/15 21:14:17;;;;;;;10.70;3.92;;;;;;;11.05;100.00;100156.03;10447088;28;20132;-81
2024/02/15 21:19:21;;;;;;;7.82;3.67;;;;;;;11.06;100.00;100153.22;10446511;28;20045;-80
2024/02/15 21:24:25;;;;;;;8.35;4.25;;;;;;;11.15;100.00;100137.31;10448872;28;20201;-81
2024/02/15 21:29:29;;;;;;;5.70;2.90;;;;;;;11.20;100.00;100133.22;10445590;28;20048;-82
2024/02/15 21:34:35;;;;;;;4.40;2.90;;;;;;;11.33;99.46;100138.38;10442311;28;20037;-79
2024/02/15 21:39:41;;;;;;;4.50;2.00;;;;;;;11.38;96.25;100133.47;10436649;28;20045;-79
2024/02/15 21:44:44;;;;;;;8.93;3.30;;;;;;;11.54;94.92;100137.47;10445241;28;20042;-80
2024/02/15 21:49:50;;;;;;;7.80;4.20;;;;;;;11.65;93.31;100132.81;10459537;28;20045;-80
2024/02/15 21:54:53;;;;;;;10.32;4.88;;;;;;;11.59;92.82;100130.69;10443478;28;20072;-80
2024/02/15 21:59:56;;;;;;;9.88;4.65;;;;;;;11.60;92.18;100123.44;10440647;28;20037;-80
2024/02/15 22:05:00;;;;;;;8.00;3.50;;;;;;;11.65;91.73;100116.66;10434101;28;20143;-83
2024/02/15 22:10:09;;;;;;;5.45;2.50;;;;;;;11.55;91.92;100112.28;10440822;28;20072;-79
2024/02/15 22:15:12;;;;;;;6.93;2.40;;;;;;;11.52;91.95;100107.16;10446189;28;20033;-83
2024/02/15 22:20:16;;;;;;;7.10;2.63;;;;;;;11.46;91.81;100089.72;10450108;28;20397;-80
2024/02/15 22:25:22;;;;;;;7.13;2.60;;;;;;;11.42;91.85;100088.31;10444183;28;20069;-83
2024/02/15 22:30:25;;;;;;;4.68;3.17;;;;;;;11.37;92.21;100091.41;10438813;28;20420;-81
2024/02/15 22:35:29;;;;;;;5.00;2.47;;;;;;;11.38;92.07;100078.78;10440777;28;20037;-82
2024/02/15 22:40:32;;;;;;;6.70;3.30;;;;;;;11.38;92.33;100079.66;10441495;28;20041;-82
2024/02/15 22:45:35;;;;;;;8.05;2.75;;;;;;;11.31;92.90;100074.97;10449823;28;20051;-79
2024/02/15 22:50:43;;;;;;;9.63;2.35;;;;;;;11.12;94.87;100065.84;10447168;28;20052;-84
2024/02/15 22:55:46;;;;;;;6.63;2.70;;;;;;;10.94;96.43;100064.72;10444364;28;20033;-80
2024/02/15 23:00:49;;;;;;;4.13;2.30;;;;;;;11.02;96.34;100071.13;10441244;28;20064;-82
2024/02/15 23:05:53;;;;;;;3.70;2.30;;;;;;;10.99;96.80;100062.50;10434652;28;20115;-81
2024/02/15 23:10:56;;;;;;;6.57;2.90;;;;;;;10.82;98.12;100051.38;10433583;28;20051;-82
2024/02/15 23:16:03;;;;;;;6.97;2.83;;;;;;;10.77;98.93;100048.25;10462433;28;20037;-80
2024/02/15 23:21:08;;;;;;;6.03;2.53;;;;;;;10.86;98.24;100064.56;10450982;28;20099;-83
2024/02/15 23:26:11;;;;;;;5.50;2.70;;;;;;;10.75;98.85;100069.03;10450600;28;20459;-83